Time;durP1;ratioP1;P1;durP2;ratioP2;P2;SDS_P1;SDS_P2;PMS_P1;PMS_P2;Temp;Humidity;BMP_temperature;BMP_pressure;BME280_temperature;BME280_humidity;BME280_pressure;Samples;Min_cycle;Max_cycle;Signal;HPM_P1;HPM_P2
2022/04/18 00:02:17;;;;;;;5.40;3.70;;;;;;;19.01;42.21;102063.41;5106055;28;20063;-44
2022/04/18 00:04:42;;;;;;;6.22;4.07;;;;;;;19.10;42.13;102067.09;5088305;28;20043;-44
2022/04/18 00:07:09;;;;;;;6.28;4.78;;;;;;;19.00;42.25;102059.03;5087892;28;20020;-44
2022/04/18 00:09:34;;;;;;;6.05;4.13;;;;;;;19.09;42.40;102079.72;5105146;28;20095;-45
2022/04/18 00:12:00;;;;;;;5.70;4.03;;;;;;;19.08;42.38;102066.41;5106356;28;20118;-48
2022/04/18 00:14:26;;;;;;;5.50;4.43;;;;;;;19.07;42.29;102064.69;5105589;28;20028;-44
2022/04/18 00:16:51;;;;;;;4.97;4.00;;;;;;;19.08;42.32;102069.09;5104856;28;20079;-48
2022/04/18 00:19:16;;;;;;;6.57;4.88;;;;;;;18.99;42.43;102049.25;5104751;28;20065;-46
2022/04/18 00:21:42;;;;;;;5.22;3.95;;;;;;;18.96;42.53;102049.50;5104876;28;20402;-46
2022/04/18 00:24:10;;;;;;;4.63;4.05;;;;;;;19.06;42.20;102068.38;5103409;28;20031;-44
2022/04/18 00:26:37;;;;;;;5.75;4.43;;;;;;;19.05;41.99;102064.00;5106277;28;20031;-44
2022/04/18 00:29:02;;;;;;;4.88;3.88;;;;;;;19.06;42.14;102068.38;5087012;28;20032;-45
2022/04/18 00:31:27;;;;;;;5.72;4.45;;;;;;;19.04;42.38;102063.13;5104578;28;20031;-45
2022/04/18 00:33:53;;;;;;;5.43;4.00;;;;;;;18.95;42.35;102054.06;5105805;28;20036;-44
2022/04/18 00:36:18;;;;;;;6.60;4.60;;;;;;;19.03;42.18;102064.13;5105482;28;20030;-44
2022/04/18 00:38:44;;;;;;;5.50;4.05;;;;;;;19.02;41.95;102061.56;5103477;28;20030;-44
2022/04/18 00:41:09;;;;;;;6.95;4.70;;;;;;;19.02;41.98;102059.72;5124300;28;20043;-45
2022/04/18 00:43:50;;;;;;;4.47;3.83;;;;;;;19.03;41.94;102057.88;5125303;28;20106;-43
2022/04/18 00:46:17;;;;;;;5.65;4.35;;;;;;;19.00;42.16;102058.19;5141972;27;20015;-46
2022/04/18 00:48:43;;;;;;;7.20;4.47;;;;;;;19.00;41.93;102056.31;5144998;27;20019;-44
2022/04/18 00:51:17;;;;;;;5.70;4.20;;;;;;;18.92;41.98;102040.00;5145146;27;20051;-44
2022/04/18 00:53:43;;;;;;;6.30;3.95;;;;;;;19.00;42.12;102055.47;5127476;27;20026;-45
2022/04/18 00:56:12;;;;;;;5.80;4.20;;;;;;;18.99;42.17;102051.94;5145120;27;20027;-48
2022/04/18 00:58:39;;;;;;;6.47;4.35;;;;;;;18.99;41.97;102054.63;5144594;27;20023;-47
2022/04/18 01:01:04;;;;;;;5.40;4.10;;;;;;;18.97;42.23;102060.16;5144902;27;20035;-47
2022/04/18 01:03:30;;;;;;;5.53;4.35;;;;;;;18.98;41.94;102058.28;5146163;27;20056;-44
2022/04/18 01:05:58;;;;;;;6.38;4.85;;;;;;;18.97;42.02;102054.75;5144654;27;20038;-45
2022/04/18 01:08:25;;;;;;;6.03;4.63;;;;;;;18.87;41.93;102035.03;5129103;27;20169;-46
2022/04/18 01:10:51;;;;;;;6.22;4.43;;;;;;;18.96;41.82;102046.81;5124581;28;20050;-46
2022/04/18 01:13:16;;;;;;;5.80;4.47;;;;;;;18.96;41.59;102049.50;5124982;28;20032;-46
2022/04/18 01:15:42;;;;;;;4.30;3.75;;;;;;;18.95;41.67;102045.13;5124292;28;20114;-44
2022/04/18 01:18:07;;;;;;;6.53;4.72;;;;;;;18.94;41.64;102046.94;5123893;28;20028;-47
2022/04/18 01:20:37;;;;;;;5.15;4.28;;;;;;;18.94;41.60;102048.78;5125120;28;20030;-46
2022/04/18 01:23:05;;;;;;;5.80;4.50;;;;;;;18.95;41.80;102042.44;5124538;28;20023;-46
2022/04/18 01:30:58;;;;;;;6.57;4.57;;;;;;;18.89;41.81;102043.81;5125222;28;20038;-48
2022/04/18 01:33:23;;;;;;;6.63;4.45;;;;;;;18.90;42.00;102041.97;5125052;28;20043;-44
2022/04/18 01:35:49;;;;;;;6.22;4.13;;;;;;;18.91;41.76;102047.25;5123153;28;20027;-44
2022/04/18 01:38:14;;;;;;;6.32;4.80;;;;;;;18.90;41.61;102037.47;5123934;28;20024;-44
2022/04/18 01:40:39;;;;;;;6.07;4.95;;;;;;;18.90;41.44;102036.59;5123234;28;20039;-45
2022/04/18 01:43:05;;;;;;;6.15;4.50;;;;;;;18.83;41.58;102033.63;5123086;28;20092;-48
2022/04/18 01:45:31;;;;;;;6.53;4.95;;;;;;;18.80;41.47;102033.06;5117068;27;20021;-45
2022/04/18 01:47:56;;;;;;;5.53;4.53;;;;;;;18.88;41.68;102039.44;5143884;27;20114;-46
2022/04/18 01:50:21;;;;;;;6.78;4.95;;;;;;;18.88;41.76;102035.91;5145159;27;20105;-48
2022/04/18 01:52:47;;;;;;;5.70;4.50;;;;;;;18.86;41.84;102030.66;5144610;27;20131;-47
2022/04/18 01:55:12;;;;;;;6.32;5.00;;;;;;;18.87;41.29;102031.50;5143977;27;20027;-45
2022/04/18 01:57:37;;;;;;;5.70;4.32;;;;;;;18.86;41.31;102033.34;5144637;27;20058;-47
2022/04/18 02:00:03;;;;;;;5.82;4.65;;;;;;;18.75;41.54;102014.63;5144974;27;20034;-46
2022/04/18 02:02:28;;;;;;;6.15;4.80;;;;;;;18.76;41.24;102015.47;5143828;27;20046;-45
2022/04/18 02:04:54;;;;;;;7.18;4.53;;;;;;;18.75;41.25;102022.69;5145029;27;20596;-47
2022/04/18 02:07:19;;;;;;;6.95;5.15;;;;;;;18.82;41.48;102022.97;5137057;27;20020;-48
2022/04/18 02:09:44;;;;;;;6.57;4.68;;;;;;;18.73;41.57;102005.81;5123520;28;20051;-44
2022/04/18 02:12:09;;;;;;;6.82;4.68;;;;;;;18.83;41.33;102022.00;5106390;28;20030;-44
2022/04/18 02:14:35;;;;;;;6.57;4.68;;;;;;;18.72;41.62;101998.72;5105716;28;20098;-45
2022/04/18 02:17:00;;;;;;;5.63;4.50;;;;;;;18.81;41.39;102014.03;5122814;28;20020;-45
2022/04/18 02:19:25;;;;;;;6.10;4.55;;;;;;;18.72;41.51;102001.41;5122813;28;20052;-47
2022/04/18 02:21:50;;;;;;;5.55;4.18;;;;;;;18.81;41.40;102015.88;5122943;28;20043;-49
2022/04/18 02:24:16;;;;;;;5.60;4.15;;;;;;;18.69;41.31;101991.78;5123706;28;20073;-46
2022/04/18 02:26:41;;;;;;;5.63;4.57;;;;;;;18.69;41.25;101989.09;5124300;28;20080;-48
2022/04/18 02:29:06;;;;;;;6.20;4.47;;;;;;;18.79;41.55;102015.19;5123381;28;20035;-47
2022/04/18 02:32:47;;;;;;;5.15;4.10;;;;;;;18.69;41.27;101998.97;5122754;28;20027;-44
2022/04/18 02:34:17;;;;;;;6.38;5.00;;;;;;;18.77;41.42;102011.78;5124081;28;20050;-49
2022/04/18 02:36:42;;;;;;;5.82;4.80;;;;;;;18.76;41.29;102005.53;5123525;28;20035;-45
2022/04/18 02:39:07;;;;;;;6.43;4.43;;;;;;;18.77;41.18;102003.69;5123457;28;20015;-44
2022/04/18 02:41:32;;;;;;;6.35;4.95;;;;;;;18.76;41.10;101999.28;5144743;28;20034;-46
2022/04/18 02:43:57;;;;;;;5.57;4.65;;;;;;;18.75;41.09;101998.44;5106421;28;20062;-51
2022/04/18 02:46:23;;;;;;;5.40;4.68;;;;;;;18.75;41.09;102003.84;5123037;27;20019;-44
2022/04/18 02:48:49;;;;;;;6.20;4.97;;;;;;;18.73;40.79;101995.91;5147327;27;20027;-47
2022/04/18 02:51:15;;;;;;;6.40;4.63;;;;;;;18.64;41.03;101979.69;5147571;27;20021;-45
2022/04/18 02:53:40;;;;;;;6.50;5.03;;;;;;;18.72;41.28;101996.03;5129687;27;20087;-45
2022/04/18 02:56:06;;;;;;;5.78;4.50;;;;;;;18.72;41.31;101987.94;5148774;27;20023;-47
2022/04/18 02:58:31;;;;;;;5.65;4.40;;;;;;;18.71;40.94;101987.09;5146996;27;20082;-46
2022/04/18 03:00:56;;;;;;;5.40;4.80;;;;;;;18.69;41.07;101978.31;5148402;27;20774;-46
2022/04/18 03:03:22;;;;;;;4.95;4.10;;;;;;;18.69;40.95;101986.41;5130183;27;20031;-45
2022/04/18 03:05:47;;;;;;;6.05;4.70;;;;;;;18.69;40.96;101980.09;5148395;27;20030;-46
2022/04/18 03:08:12;;;;;;;6.13;4.43;;;;;;;18.60;41.10;101964.78;5147534;27;20057;-43
2022/04/18 03:13:21;;;;;;;6.50;4.93;;;;;;;18.66;41.08;101969.63;5147957;27;20033;-48
2022/04/18 03:15:47;;;;;;;6.13;4.20;;;;;;;18.58;41.05;101964.94;5148237;27;20055;-44
2022/04/18 03:18:12;;;;;;;5.72;4.47;;;;;;;18.66;41.03;101969.63;5148254;27;20023;-47
2022/04/18 03:20:37;;;;;;;7.32;4.90;;;;;;;18.65;40.88;101968.78;5148121;27;20372;-45
2022/04/18 03:23:02;;;;;;;5.88;4.20;;;;;;;18.64;40.90;101974.28;5129512;27;20528;-44
2022/04/18 03:25:28;;;;;;;5.75;4.35;;;;;;;18.55;41.06;101962.53;5148392;27;20035;-45
2022/04/18 03:27:53;;;;;;;5.63;4.28;;;;;;;18.60;40.87;101959.41;5129227;27;20027;-45
2022/04/18 03:30:18;;;;;;;5.65;4.50;;;;;;;18.62;40.91;101970.91;5147883;27;20031;-47
2022/04/18 03:32:43;;;;;;;5.90;4.60;;;;;;;18.64;40.96;101968.91;5147999;27;20034;-46
2022/04/18 03:35:09;;;;;;;5.30;4.35;;;;;;;18.53;40.74;101956.44;5147827;27;20090;-48
2022/04/18 03:40:18;;;;;;;6.07;4.35;;;;;;;18.59;40.62;101966.63;5142366;27;20082;-47
2022/04/18 03:42:43;;;;;;;5.43;4.22;;;;;;;18.59;40.80;101971.19;5147475;27;20023;-46
2022/04/18 03:45:09;;;;;;;5.90;4.30;;;;;;;18.59;40.72;101972.03;5129329;27;20030;-44
2022/04/18 03:47:34;;;;;;;5.68;4.45;;;;;;;18.58;40.91;101973.03;5129128;27;20030;-44
2022/04/18 03:49:59;;;;;;;5.20;4.57;;;;;;;18.57;40.90;101973.19;5129029;27;20011;-47
2022/04/18 03:52:25;;;;;;;7.50;4.60;;;;;;;18.49;40.93;101957.72;5129118;27;20027;-51
2022/04/18 03:54:50;;;;;;;5.85;4.90;;;;;;;18.47;40.79;101957.00;5147573;27;20087;-44
2022/04/18 03:57:16;;;;;;;5.45;4.28;;;;;;;18.47;40.85;101955.13;5127745;27;20383;-46
2022/04/18 03:59:41;;;;;;;5.93;4.60;;;;;;;18.56;40.60;101975.00;5129105;27;20019;-44
2022/04/18 04:02:06;;;;;;;6.80;4.85;;;;;;;18.55;40.59;101970.59;5129041;27;20082;-44
2022/04/18 04:04:32;;;;;;;6.80;4.82;;;;;;;18.55;41.02;101972.44;5129036;27;20030;-45
2022/04/18 04:06:57;;;;;;;6.40;4.68;;;;;;;18.54;40.57;101971.59;5128426;27;20037;-49
2022/04/18 04:09:23;;;;;;;6.40;4.88;;;;;;;18.44;40.48;101955.44;5146480;27;20066;-45
2022/04/18 04:11:48;;;;;;;6.85;4.53;;;;;;;18.49;40.81;101958.56;5147616;27;20244;-46
2022/04/18 04:14:13;;;;;;;6.97;5.15;;;;;;;18.51;40.83;101969.19;5128379;27;20034;-47
2022/04/18 04:16:39;;;;;;;6.53;4.93;;;;;;;18.51;40.58;101965.63;5147132;27;20034;-44
2022/04/18 04:19:05;;;;;;;7.53;5.35;;;;;;;18.51;40.83;101960.25;5146903;27;20054;-43
2022/04/18 04:21:30;;;;;;;5.95;4.80;;;;;;;18.40;40.83;101951.31;5146964;27;20026;-43
2022/04/18 04:23:55;;;;;;;5.53;4.75;;;;;;;18.49;40.38;101963.94;5128107;27;20487;-45
2022/04/18 04:26:20;;;;;;;6.60;5.05;;;;;;;18.47;40.92;101963.22;5128722;27;20485;-47
2022/04/18 04:28:46;;;;;;;5.32;4.50;;;;;;;18.47;40.69;101960.53;5146370;27;20407;-44
2022/04/18 04:31:11;;;;;;;6.72;4.80;;;;;;;18.46;40.56;101957.97;5146832;27;20023;-47
2022/04/18 04:33:36;;;;;;;6.72;4.88;;;;;;;18.47;40.48;101965.06;5128398;27;20038;-45
2022/04/18 04:36:02;;;;;;;6.57;4.97;;;;;;;18.41;40.57;101952.19;5128228;27;20073;-46
2022/04/18 04:38:27;;;;;;;6.68;5.20;;;;;;;18.34;40.66;101942.94;5145228;27;20027;-46
2022/04/18 04:40:53;;;;;;;7.00;5.35;;;;;;;18.33;40.71;101942.09;5128265;27;20144;-44
2022/04/18 04:43:25;;;;;;;5.93;4.32;;;;;;;18.34;40.40;101943.78;5127808;27;20027;-43
2022/04/18 04:45:50;;;;;;;5.63;4.30;;;;;;;18.32;40.67;101940.41;5138186;27;20053;-44
2022/04/18 04:48:16;;;;;;;6.88;5.68;;;;;;;18.38;40.40;101958.69;5145348;27;20023;-46
2022/04/18 04:50:41;;;;;;;6.75;4.90;;;;;;;18.41;40.59;101960.25;5145288;27;20027;-47
2022/04/18 04:53:06;;;;;;;5.60;4.35;;;;;;;18.31;40.39;101945.91;5144581;27;20023;-48
2022/04/18 04:55:32;;;;;;;6.20;5.10;;;;;;;18.40;40.42;101967.47;5141278;27;20030;-47
2022/04/18 04:57:57;;;;;;;6.47;4.50;;;;;;;18.40;40.84;101962.09;5122515;27;20027;-45
2022/04/18 05:00:22;;;;;;;5.95;4.65;;;;;;;18.41;40.70;101962.94;5145755;27;20011;-44
2022/04/18 05:02:47;;;;;;;5.50;4.25;;;;;;;18.42;40.87;101960.09;5118854;27;20023;-45
2022/04/18 05:05:13;;;;;;;5.18;4.03;;;;;;;18.43;40.73;101963.63;5141461;27;20182;-44
2022/04/18 05:07:39;;;;;;;6.50;4.40;;;;;;;18.43;40.76;101969.03;5106764;28;20081;-47
2022/04/18 05:10:04;;;;;;;5.75;4.20;;;;;;;18.43;40.93;101961.78;5127232;27;20023;-45
2022/04/18 05:12:31;;;;;;;4.93;3.92;;;;;;;18.43;41.06;101961.78;5126666;27;20031;-49
2022/04/18 05:15:03;;;;;;;6.50;4.30;;;;;;;18.45;40.63;101969.75;5127784;27;20023;-46
2022/04/18 05:17:29;;;;;;;6.07;4.32;;;;;;;18.38;40.71;101958.69;5127128;27;20030;-46
2022/04/18 05:19:54;;;;;;;5.10;4.20;;;;;;;18.42;40.76;101968.19;5145793;27;20019;-47
2022/04/18 05:22:19;;;;;;;5.30;3.85;;;;;;;18.43;40.84;101966.34;5127051;27;20062;-45
2022/04/18 05:24:45;;;;;;;4.72;3.78;;;;;;;18.41;41.09;101968.34;5127014;27;20055;-47
2022/04/18 05:27:15;;;;;;;4.97;3.92;;;;;;;18.41;40.90;101968.34;5126673;27;20027;-47
2022/04/18 05:29:40;;;;;;;4.93;4.10;;;;;;;18.40;40.97;101966.63;5126669;27;20027;-47
2022/04/18 05:32:06;;;;;;;4.78;3.65;;;;;;;18.36;41.25;101963.38;5145065;27;20087;-47
2022/04/18 05:34:31;;;;;;;4.63;3.78;;;;;;;18.28;40.89;101948.91;5142210;27;20129;-48
2022/04/18 05:36:56;;;;;;;5.68;3.85;;;;;;;18.39;41.03;101976.56;5135477;27;20014;-45
2022/04/18 05:39:21;;;;;;;4.82;3.63;;;;;;;18.38;41.25;101965.91;5117980;28;20047;-44
2022/04/18 05:41:46;;;;;;;6.45;4.15;;;;;;;18.28;40.97;101951.59;5101963;28;20020;-44
2022/04/18 05:44:12;;;;;;;4.43;3.63;;;;;;;18.38;41.04;101963.22;5104326;28;20081;-48
2022/04/18 05:46:37;;;;;;;4.18;3.35;;;;;;;18.39;41.14;101973.00;5104323;28;20031;-44
2022/04/18 05:49:02;;;;;;;5.05;3.90;;;;;;;18.36;41.22;101971.44;5106313;28;20464;-48
2022/04/18 05:51:27;;;;;;;4.75;3.78;;;;;;;18.27;41.37;101952.59;5088393;28;20629;-45
2022/04/18 05:53:53;;;;;;;5.22;3.60;;;;;;;18.36;41.33;101971.44;5098828;28;20082;-47
2022/04/18 05:56:18;;;;;;;5.82;4.40;;;;;;;18.36;41.44;101959.81;5106874;28;20023;-45
2022/04/18 05:58:43;;;;;;;5.03;3.50;;;;;;;18.36;41.24;101963.38;5108851;28;20024;-44
2022/04/18 06:01:08;;;;;;;5.47;3.95;;;;;;;18.34;41.24;101962.63;5104580;28;20020;-45
2022/04/18 06:03:33;;;;;;;6.20;4.63;;;;;;;18.33;40.91;101966.31;5102029;28;20032;-45
2022/04/18 06:05:59;;;;;;;6.05;4.90;;;;;;;18.29;41.10;101972.97;5100103;28;20032;-44
2022/04/18 06:08:24;;;;;;;6.57;5.18;;;;;;;18.30;41.16;101968.44;5103917;28;20051;-46
2022/04/18 06:10:49;;;;;;;7.78;5.60;;;;;;;18.18;40.69;101951.56;5099975;28;20488;-43
2022/04/18 06:13:14;;;;;;;7.93;5.35;;;;;;;18.29;40.64;101977.50;5092421;28;20172;-46
2022/04/18 06:15:40;;;;;;;7.70;6.03;;;;;;;18.28;40.59;101979.38;5098324;28;20043;-45
2022/04/18 06:18:05;;;;;;;8.68;6.05;;;;;;;18.19;40.28;101955.97;5109920;28;20034;-46
2022/04/18 06:20:30;;;;;;;11.02;6.47;;;;;;;18.29;40.22;101972.97;5105510;28;20023;-43
2022/04/18 06:22:55;;;;;;;8.30;6.40;;;;;;;18.29;40.30;101969.44;5103634;28;20073;-46
2022/04/18 06:25:21;;;;;;;8.32;6.05;;;;;;;18.31;40.05;101968.31;5098718;28;20024;-46
2022/04/18 06:27:46;;;;;;;9.30;6.97;;;;;;;18.30;40.73;101966.59;5101421;28;20469;-47
2022/04/18 06:30:11;;;;;;;8.15;6.40;;;;;;;18.30;40.25;101960.38;5091121;28;20094;-43
2022/04/18 06:32:37;;;;;;;8.93;6.55;;;;;;;18.32;39.95;101967.31;5107654;28;20088;-47
2022/04/18 06:35:03;;;;;;;8.85;6.20;;;;;;;18.34;39.82;101970.72;5109175;28;20016;-47
2022/04/18 06:37:29;;;;;;;9.48;7.10;;;;;;;18.29;39.57;101964.06;5100724;28;20033;-44
2022/04/18 06:39:55;;;;;;;9.25;6.72;;;;;;;18.27;39.62;101958.81;5125873;27;20142;-44
2022/04/18 06:42:20;;;;;;;8.20;6.43;;;;;;;18.36;39.47;101971.44;5122067;28;20035;-45
2022/04/18 06:44:45;;;;;;;8.57;6.65;;;;;;;18.29;39.60;101962.22;5140924;28;20027;-45
2022/04/18 06:47:10;;;;;;;10.40;7.47;;;;;;;18.32;39.33;101959.25;5122483;28;20029;-45
2022/04/18 06:49:37;;;;;;;9.00;7.10;;;;;;;18.42;39.16;101975.41;5122461;28;20105;-46
2022/04/18 06:52:03;;;;;;;7.55;5.78;;;;;;;18.44;39.20;101977.00;5121969;28;20015;-46
2022/04/18 06:54:28;;;;;;;10.50;6.40;;;;;;;18.45;39.64;101975.16;5138114;28;20027;-47
2022/04/18 06:56:59;;;;;;;7.47;5.97;;;;;;;18.46;39.72;101969.59;5132655;28;20019;-44
2022/04/18 06:59:25;;;;;;;8.48;5.57;;;;;;;18.48;39.76;101970.34;5125543;28;20051;-48
2022/04/18 07:01:50;;;;;;;7.57;5.53;;;;;;;18.40;39.84;101958.56;5125253;28;20058;-45
2022/04/18 07:04:16;;;;;;;8.48;5.57;;;;;;;18.50;39.76;101970.19;5125538;28;20437;-43
2022/04/18 07:06:42;;;;;;;7.35;6.05;;;;;;;18.44;39.46;101946.53;5114066;28;20039;-44
2022/04/18 07:09:08;;;;;;;6.82;5.88;;;;;;;18.58;39.06;101966.78;5123493;28;20102;-45
2022/04/18 07:11:33;;;;;;;9.05;6.40;;;;;;;18.58;38.76;101964.94;5105022;28;20019;-53
2022/04/18 07:13:58;;;;;;;7.80;6.20;;;;;;;18.59;38.78;101960.41;5103830;28;20035;-43
2022/04/18 07:16:24;;;;;;;8.18;5.88;;;;;;;18.53;38.59;101951.06;5138028;28;20091;-49
2022/04/18 07:18:49;;;;;;;8.85;6.65;;;;;;;18.62;38.61;101962.81;5123201;28;20034;-49
2022/04/18 07:21:14;;;;;;;6.93;5.97;;;;;;;18.64;38.66;101967.06;5141753;28;20051;-49
2022/04/18 07:23:39;;;;;;;8.07;6.13;;;;;;;18.66;38.55;101973.19;5139644;28;20023;-50
2022/04/18 07:26:05;;;;;;;9.23;5.90;;;;;;;18.66;38.71;101973.19;5141719;28;20023;-51
2022/04/18 07:28:30;;;;;;;5.78;5.15;;;;;;;18.65;38.91;101971.47;5141222;28;20019;-54
2022/04/18 07:30:55;;;;;;;6.40;5.10;;;;;;;18.64;39.25;101972.44;5106257;28;20031;-50
2022/04/18 07:33:21;;;;;;;5.60;4.63;;;;;;;18.63;39.26;101968.06;5142653;27;20469;-48
2022/04/18 07:35:46;;;;;;;7.00;5.15;;;;;;;18.63;39.13;101976.13;5145270;27;20039;-53
2022/04/18 07:40:56;;;;;;;6.13;4.70;;;;;;;18.62;39.44;101973.59;5130352;27;20072;-48
2022/04/18 07:43:24;;;;;;;6.32;4.15;;;;;;;18.60;39.70;101960.25;5101772;27;20023;-46
2022/04/18 07:45:49;;;;;;;5.68;4.18;;;;;;;18.62;39.70;101969.06;5147476;27;20083;-51
2022/04/18 07:48:15;;;;;;;5.78;4.32;;;;;;;18.62;39.57;101969.06;5146808;27;20020;-46
2022/04/18 07:53:24;;;;;;;5.07;4.22;;;;;;;18.65;39.29;101965.25;5137900;27;20095;-44
2022/04/18 07:55:49;;;;;;;7.22;4.93;;;;;;;18.66;38.98;101970.47;5108176;28;20047;-44
2022/04/18 07:58:14;;;;;;;6.55;4.80;;;;;;;18.69;39.00;101961.25;5130509;27;20050;-44
2022/04/18 08:00:40;;;;;;;5.72;4.47;;;;;;;18.71;38.81;101954.78;5115188;27;20011;-48
2022/04/18 08:03:05;;;;;;;7.95;5.25;;;;;;;18.74;38.49;101956.34;5145405;27;20023;-45
2022/04/18 08:05:30;;;;;;;8.10;5.10;;;;;;;18.65;38.39;101938.31;5128304;27;20038;-45
2022/04/18 08:07:55;;;;;;;7.18;5.38;;;;;;;18.66;38.53;101937.31;5146261;27;20038;-46
2022/04/18 08:10:21;;;;;;;7.45;5.13;;;;;;;18.67;38.29;101939.00;5127275;27;20026;-45
2022/04/18 08:12:46;;;;;;;6.55;5.22;;;;;;;18.76;38.28;101946.25;5146415;27;20033;-46
2022/04/18 08:15:11;;;;;;;6.55;4.97;;;;;;;18.81;37.93;101953.91;5128821;27;20079;-44
2022/04/18 08:17:36;;;;;;;7.82;5.00;;;;;;;18.82;37.84;101951.09;5146695;27;20127;-48
2022/04/18 08:20:02;;;;;;;8.05;5.15;;;;;;;18.82;37.87;101950.22;5137907;27;20042;-44
2022/04/18 08:22:28;;;;;;;7.72;5.65;;;;;;;18.75;37.88;101936.47;5146416;27;20104;-48
2022/04/18 08:24:53;;;;;;;7.85;4.82;;;;;;;18.85;37.78;101950.78;5128186;27;20075;-45
2022/04/18 08:27:18;;;;;;;5.35;4.00;;;;;;;18.84;37.91;101949.09;5126346;27;20035;-46
2022/04/18 08:29:45;;;;;;;7.93;4.78;;;;;;;18.78;37.88;101933.50;5120003;27;20040;-45
2022/04/18 08:32:10;;;;;;;7.65;5.35;;;;;;;18.78;37.82;101938.91;5143242;27;20453;-44
2022/04/18 08:34:36;;;;;;;5.93;4.30;;;;;;;18.89;37.88;101956.75;5110232;27;20038;-47
2022/04/18 08:37:01;;;;;;;6.72;4.78;;;;;;;18.89;37.84;101956.75;5140207;27;20043;-44
2022/04/18 08:39:27;;;;;;;7.03;4.20;;;;;;;18.84;37.68;101950.94;5126658;27;20062;-47
2022/04/18 08:41:57;;;;;;;6.40;4.35;;;;;;;18.79;37.83;101939.75;5145970;27;20066;-50
2022/04/18 08:44:22;;;;;;;7.05;4.35;;;;;;;18.78;38.21;101943.44;5127090;27;20035;-45
2022/04/18 08:46:48;;;;;;;6.32;4.15;;;;;;;18.85;38.03;101961.56;5128159;27;20132;-46
2022/04/18 08:54:42;;;;;;;5.30;3.45;;;;;;;18.79;38.72;101954.06;5145834;27;20064;-46
2022/04/18 08:57:07;;;;;;;3.75;3.22;;;;;;;18.61;38.83;101924.28;5145036;27;20030;-46
2022/04/18 08:59:33;;;;;;;4.93;3.50;;;;;;;18.77;38.91;101950.66;5131440;27;20026;-45
2022/04/18 09:01:59;;;;;;;3.83;3.03;;;;;;;18.78;38.83;101948.84;5106941;28;20109;-45
2022/04/18 09:04:24;;;;;;;3.75;2.88;;;;;;;18.76;38.99;101943.56;5125507;28;20030;-48
2022/04/18 09:06:51;;;;;;;3.88;2.80;;;;;;;18.75;38.92;101941.88;5125309;28;20039;-48
2022/04/18 09:09:25;;;;;;;3.75;2.88;;;;;;;18.78;38.93;101943.44;5106179;28;20616;-47
2022/04/18 09:11:51;;;;;;;4.03;2.88;;;;;;;18.76;39.10;101938.19;5125817;28;20115;-48
2022/04/18 09:14:16;;;;;;;3.55;2.75;;;;;;;18.75;39.46;101941.88;5106514;28;20019;-50
2022/04/18 09:16:42;;;;;;;4.30;2.80;;;;;;;18.66;39.01;101926.53;5125488;28;20036;-49
2022/04/18 09:19:09;;;;;;;3.20;2.90;;;;;;;18.76;39.26;101942.72;5125055;28;20019;-48
2022/04/18 09:21:54;;;;;;;3.40;2.65;;;;;;;18.75;39.31;101939.19;5125317;28;20095;-47
2022/04/18 09:24:32;;;;;;;3.72;2.85;;;;;;;18.76;39.53;101937.34;5124633;28;20030;-43
2022/04/18 09:27:13;;;;;;;4.07;2.90;;;;;;;18.73;39.52;101925.88;5125233;28;20059;-46
2022/04/18 09:29:39;;;;;;;3.58;2.60;;;;;;;18.72;39.44;101929.53;5141175;27;20287;-45
2022/04/18 09:32:12;;;;;;;3.42;2.63;;;;;;;18.75;39.70;101938.34;5145268;27;20483;-48
2022/04/18 09:34:38;;;;;;;4.75;2.95;;;;;;;18.73;39.31;101933.06;5127588;27;20023;-45
2022/04/18 09:37:17;;;;;;;3.30;2.65;;;;;;;18.76;39.16;101929.25;5126672;27;20023;-45
2022/04/18 09:39:53;;;;;;;4.32;2.70;;;;;;;18.75;39.25;101925.72;5125787;27;20482;-45
2022/04/18 09:42:20;;;;;;;3.45;2.42;;;;;;;18.63;39.53;101903.41;5126750;27;20034;-46
2022/04/18 09:44:45;;;;;;;3.80;2.65;;;;;;;18.66;39.56;101908.53;5127616;27;20079;-47
2022/04/18 09:47:20;;;;;;;3.22;2.35;;;;;;;18.77;39.56;101920.16;5143979;27;20035;-47
2022/04/18 09:49:46;;;;;;;3.28;2.78;;;;;;;18.66;39.50;101902.28;5126648;27;20027;-45
2022/04/18 09:52:15;;;;;;;3.15;2.30;;;;;;;18.76;39.61;101908.53;5126585;27;20068;-48
2022/04/18 09:54:45;;;;;;;4.00;2.42;;;;;;;18.66;39.60;101896.91;5143267;27;20022;-44
2022/04/18 09:57:10;;;;;;;3.30;2.42;;;;;;;18.73;39.81;101915.09;5144881;27;20039;-45
2022/04/18 09:59:37;;;;;;;4.85;2.75;;;;;;;18.76;39.81;101913.09;5143948;27;20019;-44
2022/04/18 10:02:02;;;;;;;3.28;2.50;;;;;;;18.78;39.53;101909.25;5126637;27;20035;-46
2022/04/18 10:04:28;;;;;;;4.20;2.65;;;;;;;18.78;39.55;101901.19;5126361;27;20038;-44
2022/04/18 10:06:53;;;;;;;3.15;2.45;;;;;;;18.78;39.79;101906.56;5145018;27;20669;-49
2022/04/18 10:09:19;;;;;;;2.90;2.20;;;;;;;18.76;39.85;101897.75;5143968;27;20506;-47
2022/04/18 10:11:44;;;;;;;3.03;2.30;;;;;;;18.79;39.71;101900.19;5109609;27;20080;-46
2022/04/18 10:14:10;;;;;;;2.75;2.20;;;;;;;18.68;39.68;101878.75;5108738;27;20027;-46
2022/04/18 10:16:35;;;;;;;4.32;2.50;;;;;;;18.80;39.72;101893.78;5126484;27;20030;-45
2022/04/18 10:19:07;;;;;;;3.03;2.33;;;;;;;18.71;39.56;101882.03;5145041;27;20030;-45
2022/04/18 10:21:32;;;;;;;2.97;2.17;;;;;;;18.81;39.93;101891.94;5126390;27;20023;-47
2022/04/18 10:24:03;;;;;;;2.80;2.17;;;;;;;18.82;39.50;101894.50;5126016;27;20091;-46
2022/04/18 10:26:47;;;;;;;2.47;2.05;;;;;;;18.80;39.69;101896.47;5144623;27;20027;-44
2022/04/18 10:29:22;;;;;;;2.65;2.38;;;;;;;18.82;39.46;101897.22;5143590;27;20091;-45
2022/04/18 10:31:48;;;;;;;3.08;2.20;;;;;;;18.82;39.83;101893.63;5126453;28;20033;-44
2022/04/18 10:34:14;;;;;;;3.08;2.10;;;;;;;18.73;39.72;101876.50;5126334;27;20058;-44
2022/04/18 10:36:47;;;;;;;2.50;2.13;;;;;;;18.85;39.78;101893.34;5144352;27;20039;-44
2022/04/18 10:39:13;;;;;;;2.83;2.00;;;;;;;18.84;39.52;101897.06;5088062;28;20484;-45
2022/04/18 10:41:46;;;;;;;3.00;2.20;;;;;;;18.84;39.60;101888.97;5124082;28;20055;-46
2022/04/18 10:44:15;;;;;;;3.85;2.30;;;;;;;18.84;39.60;101892.50;5123463;28;20054;-46
2022/04/18 10:46:42;;;;;;;2.92;2.22;;;;;;;18.75;39.82;101871.81;5124112;28;20027;-44
2022/04/18 10:49:15;;;;;;;2.80;2.05;;;;;;;18.87;39.64;101886.84;5123652;28;20023;-44
2022/04/18 10:51:41;;;;;;;3.10;2.13;;;;;;;18.86;39.78;101886.97;5105404;28;20031;-45
2022/04/18 10:54:13;;;;;;;3.47;2.20;;;;;;;18.89;39.71;101884.00;5088264;28;20483;-44
2022/04/18 10:56:57;;;;;;;2.80;2.30;;;;;;;18.89;39.60;101882.13;5123808;28;21199;-44
2022/04/18 10:59:35;;;;;;;2.30;1.70;;;;;;;18.89;39.68;101881.28;5104666;28;20100;-45
2022/04/18 11:02:02;;;;;;;2.00;1.80;;;;;;;18.87;39.90;101881.44;5105383;28;20091;-45
2022/04/18 11:04:29;;;;;;;2.88;2.00;;;;;;;18.89;39.93;101881.28;5111925;28;20388;-49
2022/04/18 11:07:05;;;;;;;2.10;1.77;;;;;;;18.90;39.99;101877.59;5127036;27;20023;-46
2022/04/18 11:09:39;;;;;;;2.58;1.90;;;;;;;18.79;40.05;101865.16;5129013;27;20037;-45
2022/04/18 11:12:18;;;;;;;2.58;1.90;;;;;;;18.82;39.99;101866.69;5130310;27;20027;-47
2022/04/18 11:14:43;;;;;;;2.53;1.95;;;;;;;18.89;39.87;101873.22;5148318;27;20027;-44
2022/04/18 11:17:11;;;;;;;2.97;2.10;;;;;;;18.91;39.79;101871.25;5148422;27;20043;-45
2022/04/18 11:19:38;;;;;;;2.65;2.00;;;;;;;18.91;40.06;101871.25;5148301;27;20095;-47
2022/04/18 11:22:05;;;;;;;3.15;2.25;;;;;;;18.90;39.82;101862.31;5148174;27;20064;-45
2022/04/18 11:24:42;;;;;;;2.05;1.70;;;;;;;18.92;39.93;101868.38;5129413;27;20018;-46
2022/04/18 11:27:15;;;;;;;2.47;2.05;;;;;;;18.93;39.99;101869.22;5148146;27;20027;-46
2022/04/18 11:29:45;;;;;;;2.63;1.98;;;;;;;18.94;39.99;101865.53;5108995;28;20024;-45
2022/04/18 11:32:15;;;;;;;1.85;1.60;;;;;;;18.94;39.81;101858.28;5127379;28;20079;-45
2022/04/18 11:34:43;;;;;;;2.40;1.80;;;;;;;18.92;39.67;101851.38;5127594;28;20027;-50
2022/04/18 11:37:10;;;;;;;2.63;1.83;;;;;;;18.94;39.85;101855.59;5108966;28;20034;-52
2022/04/18 11:39:48;;;;;;;2.17;1.88;;;;;;;18.94;40.03;101838.59;5126283;28;20059;-49
2022/04/18 11:42:15;;;;;;;3.05;1.90;;;;;;;18.95;39.89;101841.16;5094884;27;20042;-46
2022/04/18 11:44:41;;;;;;;2.00;1.67;;;;;;;18.95;39.85;101854.63;5112349;27;20463;-48